createdAt,value
2018-01-15T00:00:24.467Z,34.71
2018-01-15T00:02:50.281Z,34.70
2018-01-15T00:05:16.097Z,35.03
2018-01-15T00:07:41.933Z,34.66
2018-01-15T00:10:07.747Z,35.11
2018-01-15T00:12:33.557Z,34.66
2018-01-15T00:14:59.391Z,34.34
2018-01-15T00:17:25.201Z,34.43
2018-01-15T00:19:51.018Z,34.50
2018-01-15T00:22:16.834Z,34.52
2018-01-15T00:24:42.655Z,34.30
2018-01-15T00:27:08.534Z,34.33
2018-01-15T00:29:34.351Z,34.30
2018-01-15T00:32:00.173Z,34.33
2018-01-15T00:34:25.985Z,34.35
2018-01-15T00:36:51.805Z,34.37
2018-01-15T00:39:17.618Z,34.25
2018-01-15T00:41:43.439Z,34.25
2018-01-15T00:44:09.258Z,34.15
2018-01-15T00:46:35.079Z,34.20
2018-01-15T00:49:00.935Z,34.32
2018-01-15T00:51:26.766Z,34.23
2018-01-15T00:53:52.590Z,34.36
2018-01-15T00:56:18.439Z,34.38
2018-01-15T00:58:44.253Z,34.51
2018-01-15T01:01:10.114Z,34.52
2018-01-15T01:03:35.958Z,34.50
2018-01-15T01:06:01.778Z,34.54
2018-01-15T01:08:27.642Z,34.57
2018-01-15T01:10:53.453Z,34.58
2018-01-15T01:13:19.522Z,34.58
2018-01-15T01:15:45.353Z,34.47
2018-01-15T01:18:11.169Z,34.36
2018-01-15T01:20:37.062Z,34.38
2018-01-15T01:23:02.883Z,34.42
2018-01-15T01:25:28.712Z,34.37
2018-01-15T01:27:54.520Z,34.38
2018-01-15T01:30:20.370Z,34.40
2018-01-15T01:32:46.194Z,34.29
2018-01-15T01:35:12.045Z,34.31
2018-01-15T01:37:37.861Z,34.46
2018-01-15T01:40:03.728Z,34.33
2018-01-15T01:42:29.546Z,34.47
2018-01-15T01:44:55.395Z,34.40
2018-01-15T01:47:21.250Z,34.44
2018-01-15T01:49:47.061Z,34.32
2018-01-15T01:52:12.917Z,34.43
2018-01-15T01:54:38.742Z,34.35
2018-01-15T01:57:04.599Z,34.29
2018-01-15T01:59:30.415Z,34.52
2018-01-15T02:01:56.226Z,34.71
2018-01-15T02:04:22.055Z,34.80
2018-01-15T02:06:47.874Z,34.55
2018-01-15T02:09:13.682Z,34.85
2018-01-15T02:11:39.499Z,34.78
2018-01-15T02:14:05.354Z,34.76
2018-01-15T02:16:31.206Z,34.83
2018-01-15T02:18:57.061Z,35.03
2018-01-15T02:21:22.902Z,34.77
2018-01-15T02:23:49.664Z,34.93
2018-01-15T02:26:16.433Z,34.68
2018-01-15T02:28:42.243Z,34.64
2018-01-15T02:31:16.013Z,34.49
2018-01-15T02:33:41.854Z,34.76
2018-01-15T02:36:07.696Z,34.62
2018-01-15T02:38:34.306Z,34.61
2018-01-15T02:41:01.117Z,34.50
2018-01-15T02:43:27.745Z,34.47
2018-01-15T02:45:54.501Z,34.54
2018-01-15T02:48:20.346Z,34.45
2018-01-15T02:50:46.168Z,34.32
2018-01-15T02:53:12.797Z,34.50
2018-01-15T02:55:39.577Z,34.41
2018-01-15T02:58:05.577Z,34.47
2018-01-15T03:00:31.398Z,34.57
2018-01-15T03:02:57.216Z,34.36
2018-01-15T03:05:23.038Z,34.42
2018-01-15T03:07:48.857Z,34.45
2018-01-15T03:10:15.528Z,34.36
2018-01-15T03:12:41.337Z,34.40
2018-01-15T03:15:07.153Z,34.37
2018-01-15T03:17:32.966Z,34.38
2018-01-15T03:19:58.798Z,34.29
2018-01-15T03:22:24.614Z,34.43
2018-01-15T03:24:50.427Z,34.23
2018-01-15T03:27:16.233Z,34.29
2018-01-15T03:29:42.061Z,34.46
2018-01-15T03:32:08.889Z,34.41
2018-01-15T03:34:34.705Z,34.45
2018-01-15T03:37:00.513Z,34.41
2018-01-15T03:39:26.326Z,34.33
2018-01-15T03:41:52.128Z,34.35
2018-01-15T03:44:17.943Z,34.46
2018-01-15T03:46:43.756Z,34.41
2018-01-15T03:49:09.566Z,34.44
2018-01-15T03:51:35.377Z,34.46
2018-01-15T03:54:01.190Z,34.37
2018-01-15T03:56:26.993Z,34.40
2018-01-15T03:58:53.704Z,34.28
2018-01-15T04:01:19.517Z,35.62
2018-01-15T04:03:45.322Z,34.95
2018-01-15T04:06:11.134Z,35.17
2018-01-15T04:08:36.977Z,35.32
2018-01-15T04:11:02.786Z,34.93
2018-01-15T04:13:29.631Z,34.71
2018-01-15T04:15:55.458Z,35.01
2018-01-15T04:18:22.097Z,34.89
2018-01-15T04:20:47.945Z,34.96
2018-01-15T04:23:14.138Z,34.96
2018-01-15T04:25:39.989Z,34.82
2018-01-15T04:28:05.834Z,34.87
2018-01-15T04:30:31.644Z,34.97
2018-01-15T04:32:58.406Z,34.92
2018-01-15T04:35:25.129Z,34.77
2018-01-15T04:37:50.953Z,34.65
2018-01-15T04:40:16.809Z,34.60
2018-01-15T04:42:43.518Z,34.70
2018-01-15T04:45:09.342Z,34.77
2018-01-15T04:47:35.175Z,34.85
2018-01-15T04:50:01.125Z,34.80
2018-01-15T04:52:26.933Z,34.75
2018-01-15T04:54:52.752Z,34.83
2018-01-15T04:57:19.530Z,34.72
2018-01-15T04:59:46.237Z,34.83
2018-01-15T05:02:12.053Z,34.81
2018-01-15T05:04:38.677Z,34.77
2018-01-15T05:07:05.476Z,34.69
2018-01-15T05:09:32.119Z,34.72
2018-01-15T05:11:57.938Z,34.62
2018-01-15T05:14:24.565Z,34.56
2018-01-15T05:16:51.350Z,34.58
2018-01-15T05:19:18.117Z,34.53
2018-01-15T05:21:43.969Z,34.57
2018-01-15T05:24:10.783Z,34.42
2018-01-15T05:26:37.906Z,34.64
2018-01-15T05:29:03.751Z,34.47
2018-01-15T05:31:30.610Z,34.57
2018-01-15T05:33:57.357Z,34.91
2018-01-15T05:36:23.205Z,34.66
2018-01-15T05:38:49.854Z,34.68
2018-01-15T05:41:15.667Z,35.13
2018-01-15T05:43:42.357Z,35.15
2018-01-15T05:46:08.161Z,35.21
2018-01-15T05:48:34.799Z,35.67
2018-01-15T05:51:01.530Z,34.95
2018-01-15T05:53:28.205Z,34.87
2018-01-15T05:55:54.927Z,34.80
2018-01-15T05:58:20.791Z,35.61
2018-01-15T06:00:47.637Z,35.50
2018-01-15T06:03:14.541Z,35.34
2018-01-15T06:05:41.321Z,35.00
2018-01-15T06:08:07.136Z,34.84
2018-01-15T06:10:33.961Z,35.30
2018-01-15T06:13:00.731Z,35.00
2018-01-15T06:15:27.403Z,35.10
2018-01-15T06:17:53.245Z,35.06
2018-01-15T06:20:19.046Z,34.81
2018-01-15T06:22:44.894Z,34.78
2018-01-15T06:25:10.778Z,35.09
2018-01-15T06:27:37.389Z,34.75
2018-01-15T06:30:03.206Z,34.64
2018-01-15T06:32:29.013Z,34.69
2018-01-15T06:34:54.841Z,34.60
2018-01-15T06:37:21.562Z,34.56
2018-01-15T06:39:47.421Z,34.68
2018-01-15T06:42:14.290Z,34.77
2018-01-15T06:44:40.106Z,34.82
2018-01-15T06:47:05.917Z,34.60
2018-01-15T06:49:31.721Z,34.58
2018-01-15T06:51:57.529Z,34.63
2018-01-15T06:54:23.374Z,34.41
2018-01-15T06:56:49.188Z,34.64
2018-01-15T06:59:15.042Z,34.65
2018-01-15T07:01:40.866Z,34.60
2018-01-15T07:04:06.680Z,34.58
2018-01-15T07:06:32.490Z,34.53
2018-01-15T07:08:59.261Z,34.41
2018-01-15T07:11:25.071Z,34.74
2018-01-15T07:13:51.726Z,34.83
2018-01-15T07:16:17.538Z,35.24
2018-01-15T07:18:43.346Z,34.69
2018-01-15T07:21:10.029Z,35.02
2018-01-15T07:23:35.861Z,34.80
2018-01-15T07:26:01.671Z,34.80
2018-01-15T07:28:27.538Z,34.91
2018-01-15T07:30:53.361Z,34.77
2018-01-15T07:33:19.165Z,34.79
2018-01-15T07:35:45.030Z,34.66
2018-01-15T07:38:11.841Z,35.16
2018-01-15T07:40:38.554Z,34.74
2018-01-15T07:43:04.409Z,34.48
2018-01-15T07:45:31.085Z,34.59
2018-01-15T07:47:56.890Z,34.59
2018-01-15T07:50:23.586Z,34.61
2018-01-15T07:52:50.445Z,34.58
2018-01-15T07:55:17.149Z,34.58
2018-01-15T07:57:43.889Z,34.52
2018-01-15T08:00:16.690Z,34.48
2018-01-15T08:02:43.413Z,34.71
2018-01-15T08:05:10.237Z,34.80
2018-01-15T08:07:36.049Z,34.68
2018-01-15T08:10:02.834Z,34.47
2018-01-15T08:12:28.679Z,34.65
2018-01-15T08:14:55.409Z,34.49
2018-01-15T08:17:21.248Z,34.48
2018-01-15T08:19:47.881Z,34.61
2018-01-15T08:22:13.686Z,34.57
2018-01-15T08:24:40.466Z,34.61
2018-01-15T08:27:06.330Z,34.57
2018-01-15T08:29:32.169Z,34.60
2018-01-15T08:31:57.985Z,34.42
2018-01-15T08:34:24.890Z,34.46
2018-01-15T08:36:51.486Z,34.42
2018-01-15T08:39:17.298Z,34.49
2018-01-15T08:41:44.090Z,34.60
2018-01-15T08:44:09.961Z,34.60
2018-01-15T08:46:36.645Z,34.51
2018-01-15T08:49:02.704Z,34.54
2018-01-15T08:51:29.315Z,34.64
2018-01-15T08:53:55.233Z,34.73
2018-01-15T08:56:21.905Z,34.72
2018-01-15T08:58:47.714Z,34.76
2018-01-15T09:01:13.565Z,34.58
2018-01-15T09:03:40.361Z,34.65
2018-01-15T09:06:06.202Z,34.51
2018-01-15T09:08:32.014Z,34.46
2018-01-15T09:10:58.867Z,34.39
2018-01-15T09:13:24.681Z,34.46
2018-01-15T09:15:51.482Z,34.50
2018-01-15T09:18:17.281Z,34.58
2018-01-15T09:20:44.156Z,34.65
2018-01-15T09:23:10.797Z,34.67
2018-01-15T09:25:37.461Z,34.53
2018-01-15T09:28:03.285Z,34.55
2018-01-15T09:30:29.093Z,34.67
2018-01-15T09:32:55.221Z,34.86
2018-01-15T09:35:21.031Z,34.76
2018-01-15T09:37:46.837Z,35.17
2018-01-15T09:40:12.681Z,34.74
2018-01-15T09:42:39.473Z,34.50
2018-01-15T09:45:06.267Z,34.58
2018-01-15T09:47:33.006Z,34.49
2018-01-15T09:49:59.757Z,34.65
2018-01-15T09:52:25.574Z,34.74
2018-01-15T09:54:51.417Z,34.85
2018-01-15T09:57:18.254Z,34.84
2018-01-15T09:59:45.393Z,34.76
2018-01-15T10:02:11.205Z,34.88
2018-01-15T10:04:37.013Z,34.55
2018-01-15T10:07:02.834Z,34.34
2018-01-15T10:09:29.609Z,33.55
2018-01-15T10:11:55.414Z,32.96
2018-01-15T10:14:21.257Z,33.68
2018-01-15T10:16:47.070Z,34.21
2018-01-15T10:19:13.034Z,34.09
2018-01-15T10:21:39.288Z,34.04
2018-01-15T10:24:08.127Z,34.03
2018-01-15T10:26:34.118Z,34.03
2018-01-15T10:28:59.915Z,34.12
2018-01-15T10:31:25.730Z,34.14
2018-01-15T10:33:51.528Z,34.10
2018-01-15T10:36:17.507Z,34.18
2018-01-15T10:38:43.309Z,34.17
2018-01-15T10:41:09.267Z,34.17
2018-01-15T10:43:35.103Z,34.19
2018-01-15T10:46:00.906Z,34.32
2018-01-15T10:48:26.713Z,34.33
2018-01-15T10:50:52.513Z,34.36
2018-01-15T10:53:18.329Z,34.43
2018-01-15T10:55:44.132Z,34.53
2018-01-15T10:58:09.934Z,34.54
2018-01-15T11:00:41.766Z,34.47
2018-01-15T11:03:07.582Z,34.62
2018-01-15T11:05:33.393Z,34.53
2018-01-15T11:07:59.286Z,34.62
2018-01-15T11:10:25.112Z,36.53
2018-01-15T11:12:50.918Z,36.06
2018-01-15T11:15:16.762Z,35.41
2018-01-15T11:17:42.574Z,34.86
2018-01-15T11:20:08.477Z,35.98
2018-01-15T11:22:34.714Z,35.45
2018-01-15T11:25:01.603Z,35.45
2018-01-15T11:27:27.423Z,35.21
2018-01-15T11:29:53.276Z,35.30
2018-01-15T11:32:19.083Z,35.11
2018-01-15T11:34:44.902Z,35.53
2018-01-15T11:37:10.706Z,35.59
2018-01-15T11:39:37.553Z,35.70
2018-01-15T11:42:03.475Z,36.05
2018-01-15T11:44:29.346Z,37.91
2018-01-15T11:46:55.154Z,36.39
2018-01-15T11:49:22.002Z,35.97
2018-01-15T11:51:47.842Z,36.28
2018-01-15T11:54:13.665Z,35.98
2018-01-15T11:56:39.519Z,37.83
2018-01-15T11:59:05.321Z,36.67
2018-01-15T12:01:31.213Z,35.03
2018-01-15T12:03:57.050Z,35.55
2018-01-15T12:06:22.952Z,35.22
2018-01-15T12:08:48.797Z,34.92
2018-01-15T12:11:14.607Z,34.84
2018-01-15T12:13:40.452Z,36.46
2018-01-15T12:16:06.257Z,35.96
2018-01-15T12:18:32.093Z,35.24
2018-01-15T12:20:57.939Z,35.68
2018-01-15T12:23:23.893Z,35.12
2018-01-15T12:25:49.786Z,34.74
2018-01-15T12:28:15.589Z,34.87
2018-01-15T12:30:42.336Z,34.93
2018-01-15T12:33:08.137Z,34.81
2018-01-15T12:35:34.014Z,34.85
2018-01-15T12:38:00.745Z,34.68
2018-01-15T12:40:26.579Z,34.52
2018-01-15T12:42:52.400Z,35.08
2018-01-15T12:45:19.061Z,34.87
2018-01-15T12:47:45.741Z,34.70
2018-01-15T12:50:11.542Z,34.60
2018-01-15T12:52:37.387Z,34.40
2018-01-15T12:55:03.201Z,34.79
2018-01-15T12:57:29.835Z,34.66
2018-01-15T12:59:55.637Z,35.47
2018-01-15T13:02:22.445Z,35.13
2018-01-15T13:04:48.475Z,34.73
2018-01-15T13:07:20.418Z,36.00
2018-01-15T13:09:47.201Z,35.50
2018-01-15T13:12:13.906Z,37.42
2018-01-15T13:14:39.715Z,36.45
2018-01-15T13:17:05.519Z,36.47
2018-01-15T13:19:31.329Z,36.27
2018-01-15T13:21:57.175Z,37.63
2018-01-15T13:24:22.989Z,36.65
2018-01-15T13:26:48.834Z,38.94
2018-01-15T13:29:14.634Z,37.58
2018-01-15T13:31:40.438Z,36.14
2018-01-15T13:34:06.254Z,37.32
2018-01-15T13:36:33.098Z,36.33
2018-01-15T13:38:59.826Z,35.71
2018-01-15T13:41:26.642Z,35.50
2018-01-15T13:43:52.441Z,35.44
2018-01-15T13:46:18.245Z,35.30
2018-01-15T13:48:44.041Z,34.85
2018-01-15T13:51:09.842Z,37.55
2018-01-15T13:53:42.649Z,37.12
2018-01-15T13:56:08.458Z,35.98
2018-01-15T13:58:34.261Z,36.99
2018-01-15T14:01:00.138Z,37.54
2018-01-15T14:03:25.985Z,36.25
2018-01-15T14:05:51.911Z,35.42
2018-01-15T14:08:17.756Z,37.28
2018-01-15T14:10:44.410Z,37.27
2018-01-15T14:13:10.246Z,36.08
2018-01-15T14:15:36.895Z,35.66
2018-01-15T14:18:03.526Z,36.73
2018-01-15T14:20:29.362Z,35.75
2018-01-15T14:22:55.206Z,36.95
2018-01-15T14:25:22.062Z,35.31
2018-01-15T14:27:47.910Z,35.20
2018-01-15T14:30:13.714Z,36.18
2018-01-15T14:32:39.561Z,35.65
2018-01-15T14:35:05.381Z,35.13
2018-01-15T14:37:32.254Z,35.21
2018-01-15T14:39:58.159Z,35.02
2018-01-15T14:42:24.787Z,34.80
2018-01-15T14:44:50.737Z,34.69
2018-01-15T14:47:17.502Z,35.81
2018-01-15T14:49:44.333Z,35.07
2018-01-15T14:52:11.114Z,36.10
2018-01-15T14:54:36.958Z,36.05
2018-01-15T14:57:02.791Z,35.93
2018-01-15T14:59:28.610Z,35.70
2018-01-15T15:01:55.525Z,35.38
2018-01-15T15:04:22.130Z,35.33
2018-01-15T15:06:47.974Z,35.95
2018-01-15T15:09:13.778Z,35.70
2018-01-15T15:11:40.125Z,35.97
2018-01-15T15:14:06.878Z,35.51
2018-01-15T15:16:33.705Z,35.56
2018-01-15T15:19:00.325Z,35.35
2018-01-15T15:21:26.210Z,35.53
2018-01-15T15:23:52.844Z,35.05
2018-01-15T15:26:18.773Z,34.94
2018-01-15T15:28:44.582Z,35.00
2018-01-15T15:31:11.241Z,34.94
2018-01-15T15:33:37.198Z,35.05
2018-01-15T15:36:04.046Z,34.88
2018-01-15T15:38:29.922Z,34.94
2018-01-15T15:40:56.811Z,35.17
2018-01-15T15:43:23.537Z,34.90
2018-01-15T15:45:49.343Z,34.82
2018-01-15T15:48:16.102Z,34.90
2018-01-15T15:50:42.895Z,34.90
2018-01-15T15:53:08.702Z,34.99
2018-01-15T15:55:34.546Z,35.04
2018-01-15T15:58:01.128Z,34.93
2018-01-15T16:00:26.981Z,34.89
2018-01-15T16:02:52.831Z,34.86
2018-01-15T16:05:18.637Z,34.80
2018-01-15T16:07:44.465Z,34.71
2018-01-15T16:10:10.276Z,34.70
2018-01-15T16:12:36.096Z,34.62
2018-01-15T16:15:01.911Z,34.66
2018-01-15T16:17:27.717Z,34.88
2018-01-15T16:19:53.601Z,34.75
2018-01-15T16:22:25.590Z,34.55
2018-01-15T16:24:51.413Z,34.59
2018-01-15T16:27:18.114Z,34.44
2018-01-15T16:29:43.921Z,34.47
2018-01-15T16:32:10.754Z,34.51
2018-01-15T16:34:36.733Z,34.57
2018-01-15T16:37:02.588Z,34.58
2018-01-15T16:39:28.418Z,34.55
2018-01-15T16:41:54.348Z,34.45
2018-01-15T16:44:20.214Z,34.61
2018-01-15T16:46:46.009Z,34.52
2018-01-15T16:49:11.858Z,34.56
2018-01-15T16:51:37.686Z,34.58
2018-01-15T16:54:03.566Z,34.62
2018-01-15T16:56:29.410Z,34.61
2018-01-15T16:58:55.288Z,34.58
2018-01-15T17:01:21.095Z,34.51
2018-01-15T17:03:46.902Z,34.59
2018-01-15T17:06:13.494Z,34.55
2018-01-15T17:08:40.458Z,34.78
2018-01-15T17:11:06.257Z,34.65
2018-01-15T17:13:32.066Z,34.65
2018-01-15T17:15:57.912Z,34.55
2018-01-15T17:18:23.713Z,34.66
2018-01-15T17:20:49.542Z,34.65
2018-01-15T17:23:15.433Z,34.62
2018-01-15T17:25:41.234Z,34.71
2018-01-15T17:28:07.078Z,34.69
2018-01-15T17:30:32.917Z,34.59
2018-01-15T17:32:59.582Z,34.67
2018-01-15T17:35:25.409Z,34.67
2018-01-15T17:37:52.077Z,34.61
2018-01-15T17:40:17.884Z,34.55
2018-01-15T17:42:43.704Z,34.67
2018-01-15T17:45:09.545Z,34.53
2018-01-15T17:47:35.356Z,34.92
2018-01-15T17:50:01.168Z,34.71
2018-01-15T17:52:26.979Z,34.58
2018-01-15T17:54:52.782Z,34.65
2018-01-15T17:57:19.425Z,34.71
2018-01-15T17:59:45.229Z,34.54
2018-01-15T18:02:11.136Z,34.80
2018-01-15T18:04:37.027Z,34.99
2018-01-15T18:07:02.935Z,34.69
2018-01-15T18:09:28.781Z,34.33
2018-01-15T18:11:55.478Z,34.59
2018-01-15T18:14:21.281Z,34.61
2018-01-15T18:16:47.125Z,34.57
2018-01-15T18:19:12.986Z,34.32
2018-01-15T18:21:38.826Z,34.16
2018-01-15T18:24:04.705Z,34.06
2018-01-15T18:26:31.509Z,34.17
2018-01-15T18:28:58.246Z,34.59
2018-01-15T18:31:25.073Z,34.51
2018-01-15T18:33:50.906Z,34.26
2018-01-15T18:36:16.714Z,34.17
2018-01-15T18:38:42.581Z,34.67
2018-01-15T18:41:08.409Z,34.55
2018-01-15T18:43:34.289Z,34.47
2018-01-15T18:46:00.134Z,34.72
2018-01-15T18:48:25.944Z,34.54
2018-01-15T18:50:51.793Z,34.28
2018-01-15T18:53:18.461Z,34.69
2018-01-15T18:55:44.269Z,34.51
2018-01-15T18:58:10.079Z,34.33
2018-01-15T19:00:36.042Z,34.68
2018-01-15T19:03:01.849Z,34.74
2018-01-15T19:05:27.718Z,34.47
2018-01-15T19:07:53.666Z,34.40
2018-01-15T19:10:19.510Z,34.47
2018-01-15T19:12:46.290Z,34.46
2018-01-15T19:15:12.134Z,34.39
2018-01-15T19:17:38.817Z,34.32
2018-01-15T19:20:05.557Z,34.35
2018-01-15T19:22:31.830Z,34.58
2018-01-15T19:24:57.784Z,34.46
2018-01-15T19:27:23.614Z,34.36
2018-01-15T19:29:49.478Z,34.40
2018-01-15T19:32:15.297Z,34.48
2018-01-15T19:34:47.130Z,34.33
2018-01-15T19:40:12.348Z,34.89
2018-01-15T19:42:38.180Z,34.60
2018-01-15T19:45:11.097Z,35.33
2018-01-15T19:47:43.105Z,35.21
2018-01-15T19:50:15.151Z,35.22
2018-01-15T19:52:47.016Z,35.16
2018-01-15T19:55:19.103Z,35.05
2018-01-15T19:57:51.065Z,34.84
2018-01-15T20:00:23.081Z,34.72
2018-01-15T20:02:55.301Z,35.35
2018-01-15T20:05:27.215Z,34.62
2018-01-15T20:08:00.311Z,34.68
2018-01-15T20:10:33.338Z,34.66
2018-01-15T20:12:59.163Z,34.50
2018-01-15T20:15:24.983Z,34.45
2018-01-15T20:17:50.790Z,34.37
2018-01-15T20:20:16.633Z,34.25
2018-01-15T20:22:42.641Z,34.22
2018-01-15T20:25:08.447Z,34.19
2018-01-15T20:27:34.271Z,34.17
2018-01-15T20:30:00.885Z,34.29
2018-01-15T20:32:27.623Z,34.29
2018-01-15T20:34:53.590Z,34.15
2018-01-15T20:37:19.785Z,34.17
2018-01-15T20:39:45.639Z,34.10
2018-01-15T20:42:11.442Z,34.03
2018-01-15T20:44:37.251Z,34.00
2018-01-15T20:47:03.062Z,34.03
2018-01-15T20:49:28.869Z,33.87
2018-01-15T20:51:54.670Z,34.11
2018-01-15T20:54:20.519Z,34.00
2018-01-15T20:56:46.323Z,33.89
2018-01-15T20:59:12.130Z,33.81
2018-01-15T21:01:38.007Z,33.90
2018-01-15T21:04:03.809Z,33.86
2018-01-15T21:06:29.651Z,33.79
2018-01-15T21:08:56.435Z,33.86
2018-01-15T21:11:22.241Z,33.87
2018-01-15T21:13:49.102Z,33.73
2018-01-15T21:16:14.910Z,33.82
2018-01-15T21:18:40.838Z,33.81
2018-01-15T21:21:06.710Z,33.81
2018-01-15T21:23:32.525Z,33.63
2018-01-15T21:25:58.334Z,33.71
2018-01-15T21:28:24.301Z,33.63
2018-01-15T21:30:50.107Z,33.56
2018-01-15T21:33:16.026Z,33.57
2018-01-15T21:35:41.870Z,34.43
2018-01-15T21:38:08.403Z,33.86
2018-01-15T21:40:34.273Z,34.04
2018-01-15T21:43:00.147Z,33.85
2018-01-15T21:45:27.866Z,33.69
2018-01-15T21:47:54.843Z,33.65
2018-01-15T21:50:20.651Z,33.66
2018-01-15T21:52:47.317Z,33.86
2018-01-15T21:55:13.118Z,33.73
2018-01-15T21:57:38.961Z,33.64
2018-01-15T22:00:04.908Z,33.57
2018-01-15T22:02:31.737Z,33.56
2018-01-15T22:04:58.369Z,33.42
2018-01-15T22:07:24.226Z,33.47
2018-01-15T22:09:50.043Z,33.50
2018-01-15T22:12:15.888Z,33.44
2018-01-15T22:14:41.745Z,33.46
2018-01-15T22:17:07.754Z,33.46
2018-01-15T22:19:33.597Z,33.30
2018-01-15T22:21:59.417Z,33.31
2018-01-15T22:24:25.266Z,33.46
2018-01-15T22:26:51.085Z,33.50
2018-01-15T22:29:16.894Z,33.44
2018-01-15T22:31:42.745Z,33.54
2018-01-15T22:34:09.486Z,33.60
2018-01-15T22:36:35.337Z,33.45
2018-01-15T22:39:01.185Z,33.32
2018-01-15T22:41:26.995Z,33.42
2018-01-15T22:43:52.842Z,33.35
2018-01-15T22:46:18.677Z,33.56
2018-01-15T22:48:45.450Z,33.52
2018-01-15T22:51:12.225Z,33.51
2018-01-15T22:53:39.070Z,33.48
2018-01-15T22:56:05.933Z,33.50
2018-01-15T22:58:31.746Z,33.39
2018-01-15T23:00:57.594Z,33.39
2018-01-15T23:03:23.398Z,33.62
2018-01-15T23:05:50.077Z,33.59
2018-01-15T23:08:16.850Z,33.79
2018-01-15T23:10:42.730Z,33.81
2018-01-15T23:13:08.570Z,33.76
2018-01-15T23:15:34.377Z,33.70
2018-01-15T23:18:00.214Z,33.87
2018-01-15T23:20:26.017Z,33.90
2018-01-15T23:22:51.818Z,33.90
2018-01-15T23:25:17.622Z,33.93
2018-01-15T23:27:43.424Z,33.97
2018-01-15T23:30:09.262Z,34.02
2018-01-15T23:32:36.033Z,34.15
2018-01-15T23:35:01.840Z,34.03
2018-01-15T23:37:27.645Z,34.07
2018-01-15T23:39:53.444Z,34.13
2018-01-15T23:42:19.242Z,34.28
2018-01-15T23:44:45.051Z,34.29
2018-01-15T23:47:10.867Z,34.49
2018-01-15T23:49:36.661Z,34.68
2018-01-15T23:52:02.458Z,34.84
2018-01-15T23:54:32.182Z,35.13
2018-01-15T23:56:57.977Z,35.15
2018-01-15T23:59:23.777Z,35.41
